Time;durP1;ratioP1;P1;durP2;ratioP2;P2;SDS_P1;SDS_P2;PMS_P1;PMS_P2;Temp;Humidity;BMP_temperature;BMP_pressure;BME280_temperature;BME280_humidity;BME280_pressure;Samples;Min_cycle;Max_cycle;Signal;HPM_P1;HPM_P2
2023/05/16 00:00:33;;;;;;;24.17;8.88;;;;;;;10.57;65.28;99859.25;7345093;19;20462;-71
2023/05/16 00:03:01;;;;;;;18.25;8.02;;;;;;;10.54;65.43;99860.31;7344709;19;20014;-68
2023/05/16 00:05:27;;;;;;;24.45;7.90;;;;;;;10.52;65.66;99863.06;7346910;19;20350;-71
2023/05/16 00:07:52;;;;;;;16.00;8.38;;;;;;;10.48;64.59;99861.59;7345412;19;20427;-71
2023/05/16 00:10:17;;;;;;;17.55;8.20;;;;;;;10.45;65.27;99869.78;7348484;19;20026;-69
2023/05/16 00:12:43;;;;;;;19.67;8.45;;;;;;;10.43;65.39;99874.34;7353582;19;20039;-73
2023/05/16 00:15:11;;;;;;;16.00;7.70;;;;;;;10.40;65.73;99879.88;7342006;19;20406;-67
2023/05/16 00:17:36;;;;;;;23.70;8.02;;;;;;;10.41;65.22;99876.25;7345951;19;20767;-72
2023/05/16 00:20:09;;;;;;;16.90;6.90;;;;;;;10.43;65.25;99877.03;7344961;19;20858;-71
2023/05/16 00:22:35;;;;;;;19.33;7.47;;;;;;;10.45;65.04;99872.44;7343408;19;20022;-70
2023/05/16 00:25:00;;;;;;;14.98;7.28;;;;;;;10.46;65.43;99879.50;7344044;19;20272;-66
2023/05/16 00:27:24;;;;;;;21.17;7.35;;;;;;;10.48;65.75;99876.72;7345474;19;20373;-71
2023/05/16 00:29:49;;;;;;;15.20;7.00;;;;;;;10.47;65.65;99878.53;7344687;19;20343;-68
2023/05/16 00:32:17;;;;;;;18.70;7.03;;;;;;;10.46;65.52;99875.97;7342548;19;20027;-64
2023/05/16 00:34:42;;;;;;;17.00;7.90;;;;;;;10.44;65.89;99869.88;7342363;19;20376;-66
2023/05/16 00:37:06;;;;;;;15.00;6.57;;;;;;;10.43;65.88;99861.03;7342624;19;20327;-70
2023/05/16 00:39:31;;;;;;;18.63;8.52;;;;;;;10.40;65.82;99863.03;7341086;19;20025;-72
2023/05/16 00:41:56;;;;;;;11.45;6.85;;;;;;;10.37;65.71;99860.59;7344710;19;20018;-65
2023/05/16 00:44:21;;;;;;;17.70;7.28;;;;;;;10.33;65.92;99861.75;7344948;19;20011;-67
2023/05/16 00:46:47;;;;;;;23.40;7.35;;;;;;;10.27;66.32;99860.34;7344089;19;20019;-65
2023/05/16 00:49:12;;;;;;;20.15;7.25;;;;;;;10.23;66.35;99860.66;7345110;19;20038;-67
2023/05/16 00:51:38;;;;;;;15.02;6.45;;;;;;;10.19;66.63;99863.53;7344807;19;20458;-66
2023/05/16 00:54:04;;;;;;;16.02;6.88;;;;;;;10.17;66.88;99856.53;7343979;19;20022;-66
2023/05/16 00:56:28;;;;;;;13.98;6.68;;;;;;;10.14;66.79;99854.97;7346172;19;20029;-65
2023/05/16 00:58:53;;;;;;;12.55;5.60;;;;;;;10.12;66.64;99853.34;7342958;19;20019;-66
2023/05/16 01:01:20;;;;;;;15.30;6.93;;;;;;;10.06;66.88;99851.06;7344319;19;20014;-67
2023/05/16 01:03:45;;;;;;;14.45;6.70;;;;;;;10.03;67.00;99843.31;7341823;19;20026;-66
2023/05/16 01:06:11;;;;;;;22.92;7.88;;;;;;;10.00;67.11;99848.84;7342330;19;20485;-64
2023/05/16 01:08:37;;;;;;;12.77;6.50;;;;;;;9.97;66.99;99854.34;7341392;19;20454;-63
2023/05/16 01:11:15;;;;;;;14.07;6.95;;;;;;;9.99;67.11;99852.44;7340312;19;20449;-67
2023/05/16 01:14:02;;;;;;;14.50;6.95;;;;;;;9.93;67.23;99847.53;7339067;19;20018;-70
2023/05/16 01:16:38;;;;;;;13.82;6.65;;;;;;;9.95;67.34;99843.78;7338415;19;20058;-70
2023/05/16 01:19:24;;;;;;;13.30;7.43;;;;;;;9.97;67.39;99849.03;7336875;19;20011;-68
2023/05/16 01:22:04;;;;;;;12.73;7.03;;;;;;;9.93;67.59;99847.53;7337547;19;20014;-69
2023/05/16 01:24:40;;;;;;;15.13;6.72;;;;;;;9.84;67.58;99833.84;7337056;19;20018;-70
2023/05/16 01:27:05;;;;;;;18.42;6.78;;;;;;;9.80;67.59;99851.00;7338103;19;20018;-68
2023/05/16 01:29:32;;;;;;;13.38;7.22;;;;;;;9.78;68.17;99844.91;7337140;19;20027;-67
2023/05/16 01:31:57;;;;;;;11.20;5.72;;;;;;;9.74;67.90;99846.06;7339466;19;20010;-68
2023/05/16 01:34:22;;;;;;;16.67;7.22;;;;;;;9.72;68.18;99847.09;7336256;19;20023;-67
2023/05/16 01:37:07;;;;;;;13.85;6.50;;;;;;;9.75;68.19;99849.56;7337963;19;20029;-66
2023/05/16 01:39:46;;;;;;;15.48;6.63;;;;;;;9.79;68.17;99856.41;7338423;19;20018;-67
2023/05/16 01:42:14;;;;;;;15.50;6.18;;;;;;;9.74;68.24;99855.84;7338607;19;20011;-68
2023/05/16 01:45:17;;;;;;;14.68;6.10;;;;;;;9.79;68.63;99861.75;7338507;19;20018;-68
2023/05/16 01:47:46;;;;;;;16.65;6.95;;;;;;;9.91;67.49;99854.78;7340257;19;20030;-68
2023/05/16 01:50:16;;;;;;;12.60;6.32;;;;;;;9.96;67.66;99856.16;7340911;19;20015;-68
2023/05/16 01:52:58;;;;;;;19.13;6.95;;;;;;;10.08;67.54;99854.50;7336756;19;20023;-67
2023/05/16 01:55:48;;;;;;;15.60;6.53;;;;;;;10.10;67.81;99858.78;7336693;19;20038;-67
2023/05/16 01:58:15;;;;;;;15.13;6.45;;;;;;;10.16;67.94;99849.50;7339469;19;20256;-70
2023/05/16 02:00:40;;;;;;;17.42;6.65;;;;;;;10.23;67.44;99850.00;7335126;19;20031;-62
2023/05/16 02:03:06;;;;;;;15.02;7.32;;;;;;;10.27;67.29;99844.34;7337139;19;20022;-63
2023/05/16 02:05:30;;;;;;;19.13;6.82;;;;;;;10.30;67.09;99846.81;7338288;19;20450;-64
2023/05/16 02:07:55;;;;;;;13.10;6.95;;;;;;;10.36;66.67;99857.09;7339114;19;20853;-65
2023/05/16 02:10:20;;;;;;;15.52;6.75;;;;;;;10.45;65.92;99856.47;7343542;19;20010;-64
2023/05/16 02:12:46;;;;;;;19.75;6.80;;;;;;;10.56;65.89;99863.72;7343615;19;20164;-63
2023/05/16 02:15:11;;;;;;;16.60;6.35;;;;;;;10.64;64.42;99855.19;7344168;19;20023;-61
2023/05/16 02:17:36;;;;;;;18.60;7.40;;;;;;;10.70;65.24;99863.66;7345580;19;20018;-64
2023/05/16 02:20:05;;;;;;;12.35;6.30;;;;;;;10.77;64.86;99861.41;7343048;19;20011;-62
2023/05/16 02:22:32;;;;;;;10.10;5.57;;;;;;;10.90;64.63;99859.59;7343888;19;20381;-63
2023/05/16 02:24:59;;;;;;;12.15;6.18;;;;;;;10.99;65.08;99858.09;7345085;19;20041;-63
2023/05/16 02:27:25;;;;;;;14.57;6.40;;;;;;;11.08;65.23;99863.66;7350976;19;20021;-68
2023/05/16 02:29:49;;;;;;;11.15;6.32;;;;;;;11.12;65.09;99861.63;7345526;19;20019;-62
2023/05/16 02:32:14;;;;;;;13.00;6.47;;;;;;;11.18;65.14;99858.50;7350530;19;20011;-67
2023/05/16 02:34:45;;;;;;;13.93;7.55;;;;;;;11.24;63.46;99866.09;7347016;19;20018;-66
2023/05/16 02:37:10;;;;;;;17.17;6.85;;;;;;;11.31;62.74;99859.34;7345867;19;20022;-65
2023/05/16 02:39:36;;;;;;;17.83;6.97;;;;;;;11.41;62.97;99867.56;7344678;19;20138;-67
2023/05/16 02:42:01;;;;;;;10.35;6.50;;;;;;;11.51;62.92;99865.97;7345039;19;20505;-63
2023/05/16 02:44:27;;;;;;;16.25;6.55;;;;;;;11.60;63.50;99863.47;7350635;19;20508;-67
2023/05/16 02:46:51;;;;;;;15.55;6.47;;;;;;;11.72;63.70;99867.09;7351145;19;20014;-66
2023/05/16 02:49:16;;;;;;;13.38;6.22;;;;;;;11.83;63.68;99867.19;7351201;19;20033;-65
2023/05/16 02:51:41;;;;;;;18.73;7.35;;;;;;;11.96;61.95;99872.50;7348382;19;20039;-64
2023/05/16 02:54:08;;;;;;;11.50;5.82;;;;;;;12.11;62.08;99865.13;7346172;19;20461;-67
2023/05/16 02:56:33;;;;;;;15.20;6.32;;;;;;;12.23;62.03;99872.25;7346604;19;20011;-66
2023/05/16 02:58:58;;;;;;;15.43;6.57;;;;;;;12.38;59.59;99864.91;7347982;19;20019;-66
2023/05/16 03:01:23;;;;;;;10.43;6.90;;;;;;;12.54;59.38;99854.72;7348466;19;20047;-67
2023/05/16 03:03:48;;;;;;;17.90;7.25;;;;;;;12.68;58.68;99852.72;7345860;19;20010;-67
2023/05/16 03:06:12;;;;;;;16.27;5.82;;;;;;;12.85;57.50;99858.59;7344955;19;20356;-70
2023/05/16 03:08:37;;;;;;;10.15;6.22;;;;;;;13.06;55.92;99852.44;7346942;19;20025;-67
2023/05/16 03:11:02;;;;;;;11.70;5.82;;;;;;;13.24;55.03;99852.81;7347549;19;20037;-67
2023/05/16 03:13:29;;;;;;;11.23;6.18;;;;;;;13.45;54.46;99860.97;7343309;19;20085;-66
2023/05/16 03:15:56;;;;;;;15.60;6.80;;;;;;;13.61;54.16;99864.16;7343365;19;20019;-67
2023/05/16 03:18:22;;;;;;;9.25;5.15;;;;;;;13.79;52.73;99851.94;7343496;19;20018;-66
2023/05/16 03:20:46;;;;;;;18.13;5.82;;;;;;;13.93;53.87;99853.47;7341257;19;20022;-67
2023/05/16 03:23:11;;;;;;;17.45;6.07;;;;;;;14.09;52.03;99859.31;7342587;19;20022;-66
2023/05/16 03:25:37;;;;;;;11.82;5.70;;;;;;;14.24;51.29;99858.97;7345041;19;20019;-67
2023/05/16 03:28:03;;;;;;;10.85;5.20;;;;;;;14.39;50.51;99858.59;7346606;19;20584;-65
2023/05/16 03:30:28;;;;;;;10.95;6.18;;;;;;;14.55;49.49;99855.50;7344831;19;20010;-65
2023/05/16 03:32:54;;;;;;;11.05;5.20;;;;;;;14.63;49.55;99853.00;7342839;19;20019;-66
2023/05/16 03:35:19;;;;;;;10.52;5.00;;;;;;;14.75;49.25;99859.16;7344926;19;20347;-65
2023/05/16 03:37:44;;;;;;;7.72;4.70;;;;;;;14.86;48.20;99857.25;7343181;19;20340;-66
2023/05/16 03:40:10;;;;;;;7.25;4.07;;;;;;;14.95;47.76;99862.81;7342966;19;20034;-66
2023/05/16 03:42:34;;;;;;;10.88;4.95;;;;;;;14.96;48.23;99864.53;7344468;19;20049;-65
2023/05/16 03:45:00;;;;;;;8.65;4.45;;;;;;;15.09;47.47;99871.38;7347464;19;20501;-67
2023/05/16 03:47:25;;;;;;;6.32;4.05;;;;;;;15.19;47.04;99855.31;7343430;19;20018;-66
2023/05/16 03:49:50;;;;;;;12.07;4.97;;;;;;;15.37;46.47;99868.97;7342642;19;20078;-69
2023/05/16 03:52:14;;;;;;;8.20;3.47;;;;;;;15.46;45.74;99862.81;7343047;19;20022;-69
2023/05/16 03:54:39;;;;;;;9.27;3.78;;;;;;;15.55;45.38;99864.72;7342732;19;20018;-71
2023/05/16 03:57:05;;;;;;;9.07;3.33;;;;;;;15.61;45.12;99864.16;7343675;19;20035;-65
2023/05/16 03:59:30;;;;;;;10.60;3.45;;;;;;;15.69;45.61;99858.94;7343439;19;20022;-67
2023/05/16 04:01:55;;;;;;;5.82;3.53;;;;;;;15.84;45.61;99862.94;7344549;19;20018;-67
2023/05/16 04:04:19;;;;;;;5.95;3.30;;;;;;;16.03;45.33;99856.75;7341896;19;20018;-68
2023/05/16 04:06:44;;;;;;;6.00;3.30;;;;;;;16.23;44.99;99865.72;7339945;19;20010;-69
2023/05/16 04:09:09;;;;;;;6.28;3.72;;;;;;;16.42;44.62;99864.88;7345975;19;20023;-66
2023/05/16 04:11:34;;;;;;;7.75;3.40;;;;;;;16.65;43.90;99863.63;7342476;19;20010;-67
2023/05/16 04:14:00;;;;;;;8.15;3.00;;;;;;;16.81;43.49;99866.59;7344163;19;20018;-65
2023/05/16 04:16:24;;;;;;;5.22;2.80;;;;;;;16.93;43.04;99870.81;7343267;19;20025;-67
2023/05/16 04:18:49;;;;;;;6.22;3.75;;;;;;;16.83;42.72;99861.91;7347768;19;20018;-68
2023/05/16 04:21:17;;;;;;;4.60;3.15;;;;;;;16.99;42.83;99867.56;7343685;19;20022;-67
2023/05/16 04:23:42;;;;;;;11.15;4.07;;;;;;;17.14;42.92;99875.19;7344834;19;20014;-68
2023/05/16 04:26:07;;;;;;;8.38;3.13;;;;;;;17.38;42.54;99872.84;7342312;19;20007;-67
2023/05/16 04:28:32;;;;;;;6.35;3.25;;;;;;;17.53;42.23;99875.88;7343247;19;20014;-67
2023/05/16 04:30:56;;;;;;;18.92;12.80;;;;;;;17.85;41.80;99876.31;7346184;19;20019;-70
2023/05/16 04:33:21;;;;;;;8.90;3.72;;;;;;;18.25;41.12;99873.25;7344063;19;20031;-68
2023/05/16 04:35:47;;;;;;;4.65;2.80;;;;;;;18.58;39.10;99884.41;7342847;19;20025;-67
2023/05/16 04:38:11;;;;;;;4.45;3.05;;;;;;;18.70;38.92;99883.16;7341776;19;20025;-66
2023/05/16 04:40:39;;;;;;;6.47;3.47;;;;;;;18.73;39.20;99883.72;7340648;19;20015;-66
2023/05/16 04:43:03;;;;;;;4.13;2.80;;;;;;;18.88;38.71;99880.41;7343861;19;20649;-66
2023/05/16 04:45:30;;;;;;;5.65;3.58;;;;;;;19.27;38.23;99881.72;7340778;19;20346;-66
2023/05/16 04:47:57;;;;;;;5.40;2.90;;;;;;;19.50;36.25;99890.19;7339822;19;20081;-65
2023/05/16 04:50:22;;;;;;;7.72;3.60;;;;;;;19.42;35.04;99887.38;7340314;19;20035;-66
2023/05/16 04:52:46;;;;;;;5.28;2.78;;;;;;;18.92;35.82;99890.78;7342471;19;20022;-67
2023/05/16 04:55:17;;;;;;;5.43;3.42;;;;;;;19.01;35.47;99889.81;7341465;19;20018;-67
2023/05/16 04:57:46;;;;;;;6.50;3.63;;;;;;;18.95;35.83;99895.88;7340083;19;20078;-66
2023/05/16 05:00:12;;;;;;;4.35;2.97;;;;;;;19.25;35.89;99904.50;7340346;19;20030;-65
2023/05/16 05:02:38;;;;;;;7.28;2.90;;;;;;;19.44;34.90;99899.72;7340264;19;20360;-69
2023/05/16 05:05:04;;;;;;;6.07;3.65;;;;;;;19.45;34.62;99904.13;7341081;19;20608;-69
2023/05/16 05:07:30;;;;;;;7.10;3.25;;;;;;;19.80;35.06;99900.47;7341220;19;20015;-69
2023/05/16 05:09:57;;;;;;;5.57;3.17;;;;;;;20.34;34.37;99897.44;7342731;19;20014;-69
2023/05/16 05:12:22;;;;;;;6.30;3.13;;;;;;;20.33;32.91;99899.28;7340804;19;20039;-68
2023/05/16 05:14:47;;;;;;;6.60;3.05;;;;;;;20.29;33.39;99896.09;7342794;19;20015;-70
2023/05/16 05:17:12;;;;;;;4.43;3.25;;;;;;;20.53;33.56;99903.44;7344196;19;20323;-71
2023/05/16 05:19:36;;;;;;;4.88;2.30;;;;;;;20.49;32.24;99899.34;7339824;19;20006;-69
2023/05/16 05:22:01;;;;;;;3.13;2.70;;;;;;;20.54;33.09;99901.59;7339619;19;20042;-69
2023/05/16 05:24:26;;;;;;;4.90;2.60;;;;;;;20.98;32.60;99905.66;7339652;19;20011;-69
2023/05/16 05:26:53;;;;;;;6.88;2.78;;;;;;;21.37;32.28;99902.25;7341237;19;20025;-69
2023/05/16 05:29:18;;;;;;;6.82;2.83;;;;;;;21.83;31.51;99900.59;7340933;19;20081;-69
2023/05/16 05:31:43;;;;;;;5.15;2.97;;;;;;;22.19;31.00;99897.41;7341201;19;20059;-67
2023/05/16 05:34:08;;;;;;;6.38;2.70;;;;;;;22.55;30.29;99900.44;7339133;19;20042;-67
2023/05/16 05:36:33;;;;;;;5.35;3.40;;;;;;;22.64;30.05;99910.22;7340565;19;20027;-67
2023/05/16 05:38:58;;;;;;;6.53;4.25;;;;;;;22.52;29.85;99907.06;7341493;19;20668;-66
2023/05/16 05:41:23;;;;;;;6.18;2.58;;;;;;;22.86;29.90;99911.28;7341816;19;20024;-66
2023/05/16 05:43:49;;;;;;;6.85;2.55;;;;;;;22.80;29.61;99905.50;7342494;19;20022;-74
2023/05/16 05:46:16;;;;;;;6.47;2.92;;;;;;;23.45;29.89;99909.53;7342531;19;20022;-68
2023/05/16 05:48:42;;;;;;;3.53;2.97;;;;;;;24.09;28.41;99905.25;7348303;19;20022;-67
2023/05/16 05:51:07;;;;;;;6.53;2.78;;;;;;;24.52;28.03;99914.38;7347818;19;20015;-67
2023/05/16 05:53:32;;;;;;;9.43;3.38;;;;;;;25.18;28.10;99906.00;7348152;19;20485;-66
2023/05/16 05:55:56;;;;;;;5.75;3.33;;;;;;;25.34;26.68;99908.47;7348103;19;20434;-66
2023/05/16 05:58:21;;;;;;;5.32;2.88;;;;;;;25.21;26.87;99914.66;7347686;19;20403;-67
2023/05/16 06:00:46;;;;;;;5.68;3.38;;;;;;;24.76;26.64;99915.88;7347140;19;20025;-71
2023/05/16 06:03:11;;;;;;;3.60;2.80;;;;;;;24.70;26.42;99919.41;7346469;19;20081;-71
2023/05/16 06:05:40;;;;;;;12.55;3.50;;;;;;;24.73;26.48;99913.53;7346652;19;20565;-68
2023/05/16 06:08:05;;;;;;;3.97;2.78;;;;;;;25.47;26.35;99922.22;7351168;19;20018;-67
2023/05/16 06:10:30;;;;;;;7.07;2.97;;;;;;;26.87;26.14;99919.09;7348134;19;20018;-67
2023/05/16 06:12:55;;;;;;;7.55;3.13;;;;;;;28.17;24.13;99920.09;7347563;19;20041;-67
2023/05/16 06:15:19;;;;;;;4.85;3.28;;;;;;;28.54;23.58;99925.84;7350995;19;20026;-67
2023/05/16 06:17:44;;;;;;;6.25;3.03;;;;;;;28.58;23.15;99918.84;7345511;19;20338;-67
2023/05/16 06:20:10;;;;;;;9.02;4.03;;;;;;;28.27;23.30;99927.84;7345151;19;20018;-67
2023/05/16 06:22:34;;;;;;;7.57;3.53;;;;;;;28.20;23.55;99927.06;7346604;19;20046;-66
2023/05/16 06:24:59;;;;;;;6.28;3.10;;;;;;;28.87;23.16;99918.28;7347022;19;20015;-67
2023/05/16 06:27:24;;;;;;;4.63;3.20;;;;;;;29.66;22.55;99916.78;7347030;19;20082;-66
2023/05/16 06:29:49;;;;;;;9.00;2.83;;;;;;;30.03;21.93;99908.56;7346600;19;20106;-68
2023/05/16 06:32:15;;;;;;;3.35;2.85;;;;;;;29.81;21.76;99922.75;7344937;19;20018;-68
2023/05/16 06:34:40;;;;;;;5.15;3.25;;;;;;;28.71;22.34;99912.44;7345358;19;20010;-69
2023/05/16 06:37:08;;;;;;;10.20;3.33;;;;;;;29.17;22.31;99923.97;7346400;19;20074;-69
2023/05/16 06:39:33;;;;;;;5.70;2.92;;;;;;;29.18;21.77;99909.16;7345708;19;20023;-67
2023/05/16 06:41:59;;;;;;;9.25;3.92;;;;;;;29.23;22.37;99920.31;7346405;19;20023;-68
2023/05/16 06:44:30;;;;;;;7.13;3.58;;;;;;;28.66;22.23;99917.75;7344660;19;20025;-68
2023/05/16 06:47:00;;;;;;;6.45;3.47;;;;;;;28.58;22.65;99915.25;7344769;19;20026;-67
2023/05/16 06:49:25;;;;;;;7.72;3.15;;;;;;;28.01;23.06;99908.72;7345836;19;20026;-67
2023/05/16 06:51:50;;;;;;;7.00;3.58;;;;;;;28.73;23.03;99922.13;7344400;19;20018;-69
2023/05/16 06:54:16;;;;;;;5.75;3.17;;;;;;;28.54;22.50;99926.69;7348988;19;20022;-68
2023/05/16 06:56:41;;;;;;;3.95;2.15;;;;;;;28.00;22.28;99920.75;7345931;19;20035;-69
2023/05/16 06:59:05;;;;;;;8.77;3.10;;;;;;;26.86;23.27;99903.75;7343896;19;20228;-70
2023/05/16 07:01:30;;;;;;;7.35;3.08;;;;;;;27.56;23.56;99908.63;7344187;19;20035;-70
2023/05/16 07:03:55;;;;;;;4.78;3.05;;;;;;;28.25;22.64;99915.41;7345826;19;20094;-70
2023/05/16 07:06:20;;;;;;;5.78;2.58;;;;;;;29.18;21.51;99920.16;7343170;19;20103;-70
2023/05/16 07:08:45;;;;;;;4.63;2.70;;;;;;;30.48;20.34;99909.06;7345743;19;20019;-68
2023/05/16 07:11:13;;;;;;;4.32;3.00;;;;;;;31.05;19.17;99908.44;7343270;19;20015;-69
2023/05/16 07:13:38;;;;;;;4.25;2.83;;;;;;;30.90;19.25;99919.09;7347418;19;20014;-68
2023/05/16 07:16:04;;;;;;;5.07;2.80;;;;;;;30.91;19.45;99917.16;7343315;19;20408;-67
2023/05/16 07:18:28;;;;;;;6.07;2.67;;;;;;;31.22;19.28;99908.63;7345906;19;20328;-67
2023/05/16 07:20:58;;;;;;;2.75;2.53;;;;;;;32.63;19.05;99912.91;7344357;19;20020;-68
2023/05/16 07:23:23;;;;;;;6.57;3.30;;;;;;;32.80;17.99;99911.06;7346888;19;20331;-69
2023/05/16 07:25:48;;;;;;;9.95;3.15;;;;;;;33.12;17.85;99929.84;7347657;19;20327;-67
2023/05/16 07:28:13;;;;;;;4.07;2.63;;;;;;;32.68;17.36;99909.41;7347379;19;20022;-69
2023/05/16 07:30:39;;;;;;;3.20;2.47;;;;;;;32.07;17.68;99903.47;7349174;19;20657;-69
2023/05/16 07:33:05;;;;;;;4.10;2.30;;;;;;;31.03;18.50;99910.63;7345130;19;20028;-67
2023/05/16 07:35:30;;;;;;;3.75;2.88;;;;;;;30.85;18.69;99894.16;7343029;19;20014;-67
2023/05/16 07:37:55;;;;;;;5.68;3.30;;;;;;;31.75;18.55;99903.03;7346591;19;20026;-68
2023/05/16 07:40:27;;;;;;;3.75;3.08;;;;;;;32.38;17.96;99898.63;7341791;19;20098;-70
2023/05/16 07:42:52;;;;;;;2.60;2.40;;;;;;;32.50;17.58;99901.34;7343819;19;20015;-69
2023/05/16 07:45:16;;;;;;;5.43;2.42;;;;;;;32.69;17.38;99903.66;7344360;19;20051;-69
2023/05/16 07:47:41;;;;;;;4.82;2.40;;;;;;;33.03;16.93;99898.22;7344304;19;20023;-69
2023/05/16 07:50:06;;;;;;;3.22;2.80;;;;;;;34.17;16.89;99901.38;7344245;19;20003;-68
2023/05/16 07:52:31;;;;;;;5.72;3.17;;;;;;;33.82;16.90;99898.97;7344509;19;20022;-68
2023/05/16 07:54:57;;;;;;;5.47;2.80;;;;;;;34.10;16.31;99901.53;7342689;19;20011;-69
2023/05/16 07:57:24;;;;;;;7.03;3.17;;;;;;;33.77;16.58;99891.41;7346105;19;20488;-68
2023/05/16 07:59:50;;;;;;;6.68;3.25;;;;;;;34.00;15.99;99898.63;7343245;19;20458;-67
2023/05/16 08:02:15;;;;;;;5.30;3.15;;;;;;;33.91;16.42;99905.72;7342996;19;20015;-69
2023/05/16 08:04:40;;;;;;;3.72;2.90;;;;;;;34.28;15.31;99902.34;7345936;19;20019;-66
2023/05/16 08:07:05;;;;;;;3.03;2.72;;;;;;;34.08;14.91;99903.75;7341861;19;20026;-68
2023/05/16 08:09:31;;;;;;;3.55;3.20;;;;;;;33.39;15.52;99903.28;7342255;19;20025;-69
2023/05/16 08:11:56;;;;;;;6.07;3.53;;;;;;;32.81;16.13;99898.94;7343255;19;20795;-68
2023/05/16 08:14:23;;;;;;;11.07;2.90;;;;;;;32.94;16.19;99903.31;7342049;19;20031;-68
2023/05/16 08:16:48;;;;;;;2.70;2.50;;;;;;;33.61;16.07;99880.38;7343645;19;20022;-70
2023/05/16 08:19:13;;;;;;;2.75;2.55;;;;;;;34.31;15.32;99904.63;7342925;19;20014;-68
2023/05/16 08:21:40;;;;;;;3.13;2.92;;;;;;;33.55;15.01;99898.81;7343082;19;20019;-71
2023/05/16 08:24:06;;;;;;;2.75;2.55;;;;;;;33.17;15.63;99892.09;7341501;19;20026;-68
2023/05/16 08:26:31;;;;;;;5.47;3.22;;;;;;;33.69;15.54;99891.00;7343096;19;20015;-68
2023/05/16 08:28:57;;;;;;;3.35;3.10;;;;;;;34.21;15.38;99892.28;7341984;19;20015;-69
2023/05/16 08:31:22;;;;;;;4.28;3.83;;;;;;;34.57;15.20;99896.31;7341383;19;20034;-69
2023/05/16 08:33:48;;;;;;;7.30;3.13;;;;;;;34.64;14.94;99892.53;7344011;19;20018;-68
2023/05/16 08:36:14;;;;;;;6.05;2.90;;;;;;;35.22;14.51;99892.53;7341830;19;20496;-71
2023/05/16 08:38:39;;;;;;;3.65;3.25;;;;;;;34.92;14.66;99882.03;7341333;19;20461;-71
2023/05/16 08:41:05;;;;;;;3.50;3.20;;;;;;;35.20;14.40;99891.16;7339294;19;20033;-70
2023/05/16 08:43:30;;;;;;;10.10;3.40;;;;;;;34.94;14.23;99893.69;7341094;19;20019;-70
2023/05/16 08:45:55;;;;;;;3.63;3.13;;;;;;;33.97;15.27;99904.72;7340844;19;20011;-69
2023/05/16 08:48:23;;;;;;;6.40;4.00;;;;;;;33.32;15.56;99899.81;7343351;19;20030;-69
2023/05/16 08:50:49;;;;;;;7.25;3.17;;;;;;;33.31;15.48;99884.31;7341519;19;20117;-70
2023/05/16 08:53:20;;;;;;;4.40;3.03;;;;;;;34.26;15.80;99877.69;7343136;19;20799;-73
2023/05/16 08:55:47;;;;;;;4.28;3.28;;;;;;;35.64;14.84;99889.84;7342517;19;20014;-70
2023/05/16 08:58:13;;;;;;;5.57;3.50;;;;;;;35.67;14.61;99886.50;7341966;19;20122;-70
2023/05/16 09:00:40;;;;;;;3.47;3.25;;;;;;;35.46;14.69;99878.31;7338981;19;20786;-68
2023/05/16 09:03:05;;;;;;;13.88;6.60;;;;;;;34.59;15.30;99866.44;7341882;19;20497;-70
2023/05/16 09:05:34;;;;;;;4.10;3.70;;;;;;;35.96;15.17;99877.81;7345547;19;20539;-73
2023/05/16 09:07:59;;;;;;;4.00;3.70;;;;;;;37.26;14.55;99877.59;7342042;19;20014;-70
2023/05/16 09:10:24;;;;;;;8.77;4.10;;;;;;;36.64;14.52;99861.97;7344834;19;20366;-68
2023/05/16 09:12:49;;;;;;;5.05;3.80;;;;;;;36.79;14.87;99864.81;7340615;19;20386;-67
2023/05/16 09:15:17;;;;;;;3.88;3.58;;;;;;;37.45;14.37;99862.03;7341038;19;20018;-68
2023/05/16 09:17:45;;;;;;;8.75;4.20;;;;;;;36.92;14.81;99863.41;7343871;19;20010;-68
2023/05/16 09:20:12;;;;;;;4.28;3.97;;;;;;;37.55;13.92;99864.78;7338807;19;20015;-68
2023/05/16 09:22:37;;;;;;;4.35;3.95;;;;;;;37.51;13.95;99857.28;7340860;19;20026;-67
2023/05/16 09:25:03;;;;;;;4.80;4.40;;;;;;;38.36;13.74;99875.69;7340094;19;20065;-67
2023/05/16 09:27:31;;;;;;;6.10;4.28;;;;;;;38.60;13.92;99864.72;7339512;19;20474;-68
2023/05/16 09:29:57;;;;;;;5.22;4.63;;;;;;;39.66;13.26;99865.78;7342496;19;20208;-68
2023/05/16 09:32:25;;;;;;;5.00;4.68;;;;;;;41.07;12.71;99873.41;7339302;19;20039;-68
2023/05/16 09:34:53;;;;;;;6.50;5.82;;;;;;;41.03;12.02;99868.72;7340077;19;20461;-68
2023/05/16 09:37:19;;;;;;;6.82;4.82;;;;;;;40.04;12.70;99854.75;7339173;19;20010;-70
2023/05/16 09:39:49;;;;;;;5.50;5.05;;;;;;;39.56;12.86;99849.16;7338590;19;20030;-71
2023/05/16 09:42:16;;;;;;;7.65;5.18;;;;;;;38.89;13.08;99844.44;7339625;19;20427;-71
2023/05/16 09:44:53;;;;;;;4.95;4.45;;;;;;;39.72;13.37;99842.28;7341320;19;20090;-71
2023/05/16 09:47:22;;;;;;;5.00;4.60;;;;;;;38.79;13.02;99828.63;7341055;19;20350;-70
2023/05/16 09:49:52;;;;;;;4.35;4.05;;;;;;;38.58;13.20;99839.09;7340715;19;20022;-70
2023/05/16 09:52:20;;;;;;;5.50;5.00;;;;;;;38.41;13.63;99842.22;7340589;19;20030;-70
2023/05/16 09:54:49;;;;;;;3.90;3.63;;;;;;;37.99;13.70;99833.50;7341088;19;20014;-71
2023/05/16 09:57:22;;;;;;;3.90;3.60;;;;;;;38.96;13.08;99833.75;7339074;19;20465;-72
2023/05/16 09:59:49;;;;;;;4.97;4.47;;;;;;;37.49;13.97;99829.75;7339811;19;20055;-70
2023/05/16 10:02:16;;;;;;;5.43;4.00;;;;;;;38.45;13.68;99814.63;7343339;19;20059;-71
2023/05/16 10:04:42;;;;;;;5.07;4.53;;;;;;;38.71;12.98;99809.75;7343206;19;20014;-69
2023/05/16 10:07:09;;;;;;;5.93;4.20;;;;;;;38.30;13.21;99814.72;7341902;19;20010;-69
2023/05/16 10:09:39;;;;;;;4.43;4.00;;;;;;;37.86;13.43;99809.06;7343545;19;20078;-70
2023/05/16 10:12:07;;;;;;;6.85;4.25;;;;;;;36.90;14.04;99816.47;7340550;19;20026;-68
2023/05/16 10:14:34;;;;;;;7.22;3.92;;;;;;;36.87;14.51;99825.34;7344057;19;20362;-68
2023/05/16 10:17:04;;;;;;;8.07;4.00;;;;;;;36.38;14.63;99817.47;7340642;19;20029;-68
2023/05/16 10:19:36;;;;;;;4.85;3.85;;;;;;;36.28;14.56;99822.16;7340250;19;20021;-67
2023/05/16 10:22:09;;;;;;;5.70;3.40;;;;;;;36.26;14.29;99814.13;7342830;19;20468;-67
2023/05/16 10:24:41;;;;;;;3.85;3.50;;;;;;;34.64;15.24;99810.28;7345550;19;20022;-68
2023/05/16 10:27:09;;;;;;;3.50;3.20;;;;;;;31.13;17.14;99797.16;7343192;19;20034;-70
2023/05/16 10:29:37;;;;;;;4.22;2.53;;;;;;;29.52;18.43;99802.59;7343068;19;20029;-68
2023/05/16 10:32:03;;;;;;;6.57;3.33;;;;;;;27.29;20.18;99806.50;7344477;19;20038;-68
2023/05/16 10:34:28;;;;;;;9.20;3.00;;;;;;;25.95;21.67;99796.69;7351885;19;20026;-68
2023/05/16 10:36:55;;;;;;;7.38;2.40;;;;;;;24.95;22.97;99800.69;7352697;19;20023;-67
2023/05/16 10:39:21;;;;;;;3.05;2.40;;;;;;;24.31;23.34;99799.06;7353148;19;20023;-68
2023/05/16 10:41:47;;;;;;;5.07;2.08;;;;;;;23.65;23.66;99798.25;7348135;19;20078;-67
2023/05/16 10:44:16;;;;;;;5.63;1.60;;;;;;;23.76;23.75;99801.34;7348478;19;20019;-68
2023/05/16 10:46:41;;;;;;;2.22;1.88;;;;;;;22.77;24.98;99797.19;7353977;19;20011;-69
2023/05/16 10:49:22;;;;;;;7.40;2.33;;;;;;;22.69;25.17;99797.19;7357377;19;20018;-70
2023/05/16 10:52:03;;;;;;;3.65;2.05;;;;;;;22.58;25.50;99800.34;7353818;19;20018;-67
2023/05/16 10:54:39;;;;;;;4.32;2.10;;;;;;;22.01;26.04;99798.06;7352449;19;20025;-67
2023/05/16 10:57:09;;;;;;;5.65;2.30;;;;;;;21.26;27.48;99797.69;7350674;19;20026;-70
2023/05/16 10:59:48;;;;;;;2.35;1.67;;;;;;;21.32;26.86;99791.59;7352307;19;20014;-72
2023/05/16 11:02:24;;;;;;;7.07;1.95;;;;;;;20.89;27.76;99794.69;7347034;19;20023;-70
2023/05/16 11:04:51;;;;;;;4.93;1.40;;;;;;;20.82;27.46;99781.00;7348078;19;20011;-72
2023/05/16 11:07:18;;;;;;;5.90;2.58;;;;;;;20.80;27.60;99784.91;7348662;19;20102;-69
2023/05/16 11:09:44;;;;;;;1.75;1.65;;;;;;;20.80;27.57;99790.31;7344563;19;20030;-70
2023/05/16 11:12:09;;;;;;;4.93;2.03;;;;;;;20.57;27.99;99790.16;7347046;19;20469;-70
2023/05/16 11:14:46;;;;;;;6.47;2.15;;;;;;;20.34;28.32;99772.88;7344922;19;20018;-73
2023/05/16 11:17:15;;;;;;;8.25;2.63;;;;;;;20.28;29.12;99785.22;7349169;19;20465;-70
2023/05/16 11:19:48;;;;;;;6.03;2.22;;;;;;;20.24;29.58;99786.56;7342593;19;20082;-69
2023/05/16 11:24:57;;;;;;;5.43;2.17;;;;;;;20.26;29.52;99784.56;7349663;19;20086;-68
2023/05/16 11:27:46;;;;;;;2.88;2.25;;;;;;;20.19;29.31;99775.41;7350245;19;20007;-70
2023/05/16 11:30:20;;;;;;;2.38;2.17;;;;;;;20.05;30.50;99770.66;7347493;19;20015;-64
2023/05/16 11:32:47;;;;;;;2.38;1.77;;;;;;;20.02;30.25;99774.53;7347804;19;20023;-63